createdAt,value
2023-04-17T00:01:07.963Z,7.15
2023-04-17T00:03:35.324Z,8.82
2023-04-17T00:06:03.495Z,10.25
2023-04-17T00:08:31.280Z,9.32
2023-04-17T00:11:07.227Z,7.82
2023-04-17T00:13:36.822Z,7.53
2023-04-17T00:16:04.215Z,8.27
2023-04-17T00:18:31.558Z,8.50
2023-04-17T00:20:58.815Z,8.98
2023-04-17T00:23:26.184Z,6.90
2023-04-17T00:25:53.422Z,8.13
2023-04-17T00:28:20.733Z,6.95
2023-04-17T00:30:48.201Z,10.48
2023-04-17T00:33:15.815Z,11.77
2023-04-17T00:35:43.168Z,8.98
2023-04-17T00:38:10.852Z,10.48
2023-04-17T00:40:38.099Z,8.30
2023-04-17T00:43:07.897Z,9.10
2023-04-17T00:45:35.629Z,9.48
2023-04-17T00:48:04.848Z,6.82
2023-04-17T00:50:33.049Z,7.53
2023-04-17T00:53:00.859Z,9.73
2023-04-17T00:55:29.087Z,7.57
2023-04-17T00:57:56.898Z,6.65
2023-04-17T01:00:24.704Z,8.35
2023-04-17T01:02:52.511Z,7.45
2023-04-17T01:05:20.648Z,8.95
2023-04-17T01:07:48.340Z,5.93
2023-04-17T01:10:15.743Z,9.93
2023-04-17T01:12:46.697Z,8.43
2023-04-17T01:15:14.142Z,6.93
2023-04-17T01:17:41.511Z,8.00
2023-04-17T01:20:10.839Z,12.45
2023-04-17T01:22:38.172Z,9.02
2023-04-17T01:25:06.654Z,11.13
2023-04-17T01:27:36.815Z,8.98
2023-04-17T01:30:04.430Z,13.30
2023-04-17T01:32:36.579Z,12.00
2023-04-17T01:35:04.141Z,9.93
2023-04-17T01:37:31.509Z,9.52
2023-04-17T01:39:59.270Z,9.70
2023-04-17T01:42:26.895Z,9.32
2023-04-17T01:44:54.161Z,10.35
2023-04-17T01:47:21.417Z,10.60
2023-04-17T01:49:48.666Z,10.57
2023-04-17T01:52:16.012Z,10.98
2023-04-17T01:54:43.473Z,9.35
2023-04-17T01:57:10.956Z,10.27
2023-04-17T01:59:38.219Z,9.85
2023-04-17T02:02:05.872Z,14.40
2023-04-17T02:04:33.286Z,9.02
2023-04-17T02:07:00.647Z,13.45
2023-04-17T02:09:27.912Z,11.00
2023-04-17T02:11:56.250Z,7.55
2023-04-17T02:14:23.594Z,9.75
2023-04-17T02:16:50.961Z,12.27
2023-04-17T02:19:18.185Z,8.93
2023-04-17T02:21:45.648Z,9.60
2023-04-17T02:24:12.957Z,11.25
2023-04-17T02:26:40.677Z,9.10
2023-04-17T02:29:07.968Z,11.70
2023-04-17T02:31:36.747Z,9.85
2023-04-17T02:34:04.410Z,10.50
2023-04-17T02:36:32.201Z,8.63
2023-04-17T02:38:59.587Z,9.45
2023-04-17T02:41:26.799Z,13.25
2023-04-17T02:43:54.359Z,12.35
2023-04-17T02:46:21.650Z,12.35
2023-04-17T02:48:48.942Z,9.13
2023-04-17T02:51:16.238Z,11.90
2023-04-17T02:53:43.562Z,12.38
2023-04-17T02:56:10.874Z,11.52
2023-04-17T02:58:39.895Z,10.73
2023-04-17T03:01:09.028Z,12.70
2023-04-17T03:03:41.376Z,11.70
2023-04-17T03:06:11.782Z,14.00
2023-04-17T03:08:39.086Z,13.18
2023-04-17T03:11:06.645Z,12.05
2023-04-17T03:13:36.498Z,13.88
2023-04-17T03:16:04.795Z,16.60
2023-04-17T03:18:35.896Z,16.15
2023-04-17T03:21:03.519Z,13.90
2023-04-17T03:23:30.790Z,13.07
2023-04-17T03:25:58.564Z,12.32
2023-04-17T03:28:26.124Z,10.48
2023-04-17T03:30:54.936Z,14.32
2023-04-17T03:33:22.637Z,12.50
2023-04-17T03:35:49.944Z,13.55
2023-04-17T03:38:17.808Z,14.90
2023-04-17T03:40:45.288Z,11.05
2023-04-17T03:43:12.933Z,21.25
2023-04-17T03:45:40.247Z,13.15
2023-04-17T03:48:07.616Z,15.38
2023-04-17T03:50:36.128Z,12.77
2023-04-17T03:53:03.472Z,16.52
2023-04-17T03:55:31.692Z,13.18
2023-04-17T03:57:59.259Z,14.27
2023-04-17T04:00:31.679Z,13.00
2023-04-17T04:03:04.459Z,14.70
2023-04-17T04:05:38.608Z,17.42
2023-04-17T04:08:07.493Z,14.10
2023-04-17T04:10:44.288Z,14.85
2023-04-17T04:13:14.043Z,16.70
2023-04-17T04:15:44.519Z,16.65
2023-04-17T04:18:12.608Z,14.23
2023-04-17T04:20:39.918Z,14.15
2023-04-17T04:23:16.653Z,16.67
2023-04-17T04:25:45.065Z,13.13
2023-04-17T04:28:24.025Z,18.75
2023-04-17T04:30:53.007Z,18.35
2023-04-17T04:33:22.002Z,16.85
2023-04-17T04:35:49.489Z,16.67
2023-04-17T04:38:17.691Z,17.60
2023-04-17T04:40:49.948Z,21.88
2023-04-17T04:45:47.893Z,16.95
2023-04-17T04:48:15.489Z,18.98
2023-04-17T04:50:42.832Z,17.45
2023-04-17T04:53:10.440Z,19.08
2023-04-17T04:55:49.194Z,26.00
2023-04-17T04:58:16.429Z,26.17
2023-04-17T05:00:45.575Z,23.65
2023-04-17T05:03:19.597Z,23.88
2023-04-17T05:05:48.235Z,26.60
2023-04-17T05:08:17.500Z,26.50
2023-04-17T05:10:53.867Z,30.10
2023-04-17T05:13:21.161Z,23.15
2023-04-17T05:15:49.191Z,21.98
2023-04-17T05:18:19.226Z,29.35
2023-04-17T05:20:46.798Z,24.02
2023-04-17T05:23:14.161Z,27.63
2023-04-17T05:25:41.517Z,26.58
2023-04-17T05:28:09.200Z,29.83
2023-04-17T05:30:36.665Z,29.27
2023-04-17T05:33:29.810Z,26.98
2023-04-17T05:36:01.166Z,26.75
2023-04-17T05:38:32.165Z,22.17
2023-04-17T05:40:59.744Z,23.05
2023-04-17T05:43:27.056Z,27.23
2023-04-17T05:45:55.076Z,25.98
2023-04-17T05:48:22.637Z,25.27
2023-04-17T05:50:51.792Z,25.33
2023-04-17T05:53:19.343Z,24.35
2023-04-17T05:55:50.890Z,25.45
2023-04-17T05:58:23.702Z,30.20
2023-04-17T06:00:54.720Z,28.98
2023-04-17T06:03:22.314Z,26.65
2023-04-17T06:05:57.256Z,25.40
2023-04-17T06:08:25.525Z,28.92
2023-04-17T06:10:53.196Z,25.70
2023-04-17T06:13:21.270Z,31.88
2023-04-17T06:15:51.563Z,28.65
2023-04-17T06:18:19.342Z,25.90
2023-04-17T06:20:46.903Z,35.55
2023-04-17T06:23:14.191Z,28.98
2023-04-17T06:25:42.696Z,34.60
2023-04-17T06:28:10.450Z,29.17
2023-04-17T06:30:38.223Z,30.27
2023-04-17T06:33:06.952Z,32.85
2023-04-17T06:35:36.430Z,33.45
2023-04-17T06:38:15.049Z,26.58
2023-04-17T06:40:44.209Z,33.92
2023-04-17T06:43:12.214Z,28.98
2023-04-17T06:45:43.089Z,29.60
2023-04-17T06:48:10.602Z,34.85
2023-04-17T06:50:39.518Z,30.45
2023-04-17T06:53:07.354Z,35.30
2023-04-17T06:55:34.780Z,40.78
2023-04-17T06:58:03.082Z,38.80
2023-04-17T07:00:30.473Z,40.58
2023-04-17T07:02:57.994Z,39.60
2023-04-17T07:05:25.475Z,38.28
2023-04-17T07:07:54.475Z,35.70
2023-04-17T07:10:21.760Z,38.03
2023-04-17T07:12:49.103Z,47.03
2023-04-17T07:15:16.674Z,56.92
2023-04-17T07:17:44.093Z,58.55
2023-04-17T07:20:11.851Z,40.20
2023-04-17T07:22:40.135Z,39.88
2023-04-17T07:25:07.920Z,39.80
2023-04-17T07:27:36.397Z,65.63
2023-04-17T07:30:04.215Z,44.70
2023-04-17T07:32:32.323Z,42.72
2023-04-17T07:34:59.634Z,43.10
2023-04-17T07:37:27.128Z,44.08
2023-04-17T07:39:54.777Z,48.75
2023-04-17T07:42:22.143Z,43.22
2023-04-17T07:44:49.713Z,39.45
2023-04-17T07:47:17.056Z,41.53
2023-04-17T07:49:48.742Z,48.15
2023-04-17T07:52:18.161Z,46.17
2023-04-17T07:54:45.669Z,40.45
2023-04-17T07:57:14.958Z,43.22
2023-04-17T07:59:42.326Z,49.10
2023-04-17T08:02:10.038Z,49.47
2023-04-17T08:04:40.337Z,46.60
2023-04-17T08:07:10.658Z,51.80
2023-04-17T08:09:38.635Z,53.90
2023-04-17T08:12:06.420Z,49.35
2023-04-17T08:14:33.804Z,55.25
2023-04-17T08:17:01.893Z,48.45
2023-04-17T08:19:30.006Z,44.85
2023-04-17T08:22:04.804Z,50.28
2023-04-17T08:24:32.100Z,43.47
2023-04-17T08:26:59.458Z,43.70
2023-04-17T08:29:26.991Z,44.20
2023-04-17T08:32:10.357Z,43.22
2023-04-17T08:34:40.648Z,39.88
2023-04-17T08:37:07.928Z,42.90
2023-04-17T08:39:35.407Z,45.40
2023-04-17T08:42:07.964Z,40.47
2023-04-17T08:44:35.853Z,41.70
2023-04-17T08:47:04.657Z,46.25
2023-04-17T08:49:35.916Z,44.80
2023-04-17T08:52:04.550Z,45.13
2023-04-17T08:54:33.524Z,52.20
2023-04-17T08:57:04.968Z,46.28
2023-04-17T08:59:32.541Z,50.33
2023-04-17T09:02:07.584Z,48.65
2023-04-17T09:04:43.156Z,52.42
2023-04-17T09:07:12.335Z,49.90
2023-04-17T09:09:56.401Z,50.85
2023-04-17T09:12:25.454Z,50.38
2023-04-17T09:14:53.331Z,50.10
2023-04-17T09:17:21.572Z,57.83
2023-04-17T09:20:12.386Z,54.42
2023-04-17T09:22:40.616Z,54.70
2023-04-17T09:25:18.713Z,52.65
2023-04-17T09:27:46.306Z,58.95
2023-04-17T09:30:13.845Z,49.30
2023-04-17T09:32:41.260Z,57.47
2023-04-17T09:35:08.958Z,57.60
2023-04-17T09:37:49.634Z,56.53
2023-04-17T09:40:18.817Z,56.38
2023-04-17T09:43:00.650Z,54.53
2023-04-17T09:45:33.455Z,55.33
2023-04-17T09:48:01.326Z,51.03
2023-04-17T09:50:29.049Z,56.13
2023-04-17T09:52:56.628Z,55.03
2023-04-17T09:55:25.084Z,56.30
2023-04-17T09:57:56.157Z,51.22
2023-04-17T10:00:27.102Z,56.13
2023-04-17T10:02:56.154Z,54.58
2023-04-17T10:05:26.081Z,51.38
2023-04-17T10:07:53.376Z,64.47
2023-04-17T10:10:26.045Z,56.00
2023-04-17T10:12:59.383Z,62.58
2023-04-17T10:15:27.320Z,62.92
2023-04-17T10:17:56.687Z,58.92
2023-04-17T10:20:24.008Z,54.60
2023-04-17T10:22:56.522Z,64.20
2023-04-17T10:25:28.392Z,58.60
2023-04-17T10:28:00.503Z,72.40
2023-04-17T10:30:54.712Z,70.05
2023-04-17T10:33:25.060Z,60.90
2023-04-17T10:35:53.533Z,54.70
2023-04-17T10:38:36.444Z,57.90
2023-04-17T10:41:08.940Z,52.60
2023-04-17T10:43:43.624Z,57.00
2023-04-17T10:46:14.883Z,54.75
2023-04-17T10:48:52.320Z,53.80
2023-04-17T10:51:27.175Z,53.40
2023-04-17T10:53:54.694Z,52.67
2023-04-17T10:56:27.039Z,55.97
2023-04-17T10:59:09.015Z,55.70
2023-04-17T11:01:42.831Z,53.60
2023-04-17T11:04:11.406Z,52.45
2023-04-17T11:06:43.040Z,58.15
2023-04-17T11:09:11.050Z,63.33
2023-04-17T11:11:44.115Z,60.85
2023-04-17T11:14:17.743Z,57.22
2023-04-17T11:16:47.037Z,59.35
2023-04-17T11:19:19.153Z,54.57
2023-04-17T11:21:48.243Z,49.67
2023-04-17T11:24:28.566Z,54.40
2023-04-17T11:26:58.324Z,48.70
2023-04-17T11:29:26.396Z,60.42
2023-04-17T11:31:55.522Z,46.35
2023-04-17T11:34:23.641Z,51.15
2023-04-17T11:36:51.398Z,52.25
2023-04-17T11:39:19.964Z,48.83
2023-04-17T11:41:47.413Z,49.25
2023-04-17T11:44:15.631Z,52.60
2023-04-17T11:46:43.126Z,53.88
2023-04-17T11:49:11.787Z,50.53
2023-04-17T11:51:39.387Z,48.63
2023-04-17T11:54:06.654Z,52.72
2023-04-17T11:56:34.229Z,74.30
2023-04-17T11:59:03.772Z,51.88
2023-04-17T12:01:31.415Z,49.05
2023-04-17T12:03:59.394Z,48.88
2023-04-17T12:06:37.326Z,52.63
2023-04-17T12:09:07.069Z,52.17
2023-04-17T12:11:36.249Z,50.28
2023-04-17T12:14:05.453Z,53.58
2023-04-17T12:16:32.737Z,50.63
2023-04-17T12:19:00.298Z,53.47
2023-04-17T12:21:27.721Z,51.10
2023-04-17T12:23:55.261Z,55.92
2023-04-17T12:26:22.500Z,55.95
2023-04-17T12:28:49.835Z,54.28
2023-04-17T12:31:17.316Z,66.13
2023-04-17T12:33:44.738Z,49.72
2023-04-17T12:36:12.093Z,47.33
2023-04-17T12:38:39.478Z,48.47
2023-04-17T12:41:06.887Z,46.67
2023-04-17T12:43:35.808Z,45.35
2023-04-17T12:46:03.338Z,44.17
2023-04-17T12:48:32.838Z,47.97
2023-04-17T12:51:00.497Z,47.42
2023-04-17T12:53:27.790Z,45.28
2023-04-17T12:55:55.060Z,43.83
2023-04-17T12:58:22.375Z,43.70
2023-04-17T13:00:49.671Z,48.33
2023-04-17T13:03:17.086Z,45.63
2023-04-17T13:05:44.566Z,45.25
2023-04-17T13:08:14.830Z,46.00
2023-04-17T13:10:42.587Z,44.00
2023-04-17T13:13:10.275Z,45.70
2023-04-17T13:15:37.653Z,46.28
2023-04-17T13:18:05.404Z,46.13
2023-04-17T13:20:32.730Z,42.83
2023-04-17T13:23:00.077Z,48.28
2023-04-17T13:25:27.854Z,48.55
2023-04-17T13:27:55.695Z,45.58
2023-04-17T13:30:23.045Z,50.40
2023-04-17T13:32:50.466Z,49.10
2023-04-17T13:35:18.061Z,46.15
2023-04-17T13:37:45.329Z,44.30
2023-04-17T13:40:12.997Z,52.80
2023-04-17T13:42:40.488Z,43.35
2023-04-17T13:45:08.358Z,44.17
2023-04-17T13:47:35.669Z,45.58
2023-04-17T13:50:03.496Z,48.90
2023-04-17T13:52:30.791Z,48.20
2023-04-17T13:54:58.016Z,47.28
2023-04-17T13:57:25.280Z,46.80
2023-04-17T13:59:52.619Z,45.33
2023-04-17T14:02:20.087Z,45.55
2023-04-17T14:04:47.906Z,47.47
2023-04-17T14:07:16.601Z,50.45
2023-04-17T14:09:43.918Z,47.17
2023-04-17T14:12:11.213Z,50.38
2023-04-17T14:14:38.441Z,48.83
2023-04-17T14:17:05.944Z,49.53
2023-04-17T14:19:33.239Z,50.85
2023-04-17T14:22:00.530Z,47.38
2023-04-17T14:24:27.821Z,47.42
2023-04-17T14:26:57.757Z,52.45
2023-04-17T14:29:25.246Z,52.53
2023-04-17T14:31:53.374Z,57.50
2023-04-17T14:34:20.850Z,53.90
2023-04-17T14:36:48.767Z,51.15
2023-04-17T14:39:16.161Z,51.25
2023-04-17T14:41:43.570Z,50.03
2023-04-17T14:44:11.156Z,59.45
2023-04-17T14:46:38.734Z,47.40
2023-04-17T14:49:06.044Z,52.83
2023-04-17T14:51:33.298Z,48.33
2023-04-17T14:54:00.605Z,49.80
2023-04-17T14:56:27.892Z,51.53
2023-04-17T14:58:55.284Z,50.42
2023-04-17T15:01:22.546Z,49.03
2023-04-17T15:03:49.916Z,50.10
2023-04-17T15:06:18.780Z,45.55
2023-04-17T15:08:46.271Z,45.05
2023-04-17T15:11:14.118Z,48.13
2023-04-17T15:13:41.336Z,46.08
2023-04-17T15:16:09.259Z,45.97
2023-04-17T15:18:36.763Z,45.75
2023-04-17T15:21:04.081Z,43.78
2023-04-17T15:23:31.657Z,44.80
2023-04-17T15:26:01.157Z,46.55
2023-04-17T15:28:28.511Z,53.47
2023-04-17T15:30:56.592Z,47.58
2023-04-17T15:33:23.908Z,49.10
2023-04-17T15:35:58.901Z,47.53
2023-04-17T15:38:26.853Z,50.65
2023-04-17T15:40:54.513Z,48.00
2023-04-17T15:43:22.022Z,49.60
2023-04-17T15:45:49.510Z,47.72
2023-04-17T15:48:17.037Z,45.72
2023-04-17T15:50:44.322Z,50.10
2023-04-17T15:53:13.181Z,46.88
2023-04-17T15:55:41.251Z,47.65
2023-04-17T15:58:08.744Z,47.40
2023-04-17T16:00:36.009Z,49.33
2023-04-17T16:03:03.643Z,49.85
2023-04-17T16:05:31.192Z,47.47
2023-04-17T16:07:58.418Z,51.55
2023-04-17T16:10:25.634Z,48.38
2023-04-17T16:12:52.977Z,50.00
2023-04-17T16:15:20.359Z,48.60
2023-04-17T16:17:48.888Z,47.53
2023-04-17T16:20:16.507Z,47.60
2023-04-17T16:22:43.904Z,46.45
2023-04-17T16:25:13.988Z,44.53
2023-04-17T16:30:09.520Z,46.60
2023-04-17T16:32:36.874Z,45.17
2023-04-17T16:35:04.434Z,44.50
2023-04-17T16:37:31.649Z,43.78
2023-04-17T16:40:04.408Z,47.20
2023-04-17T16:42:32.428Z,43.05
2023-04-17T16:44:59.984Z,43.65
2023-04-17T16:47:30.383Z,41.13
2023-04-17T16:49:57.703Z,42.97
2023-04-17T16:52:25.153Z,43.03
2023-04-17T16:54:52.483Z,38.17
2023-04-17T16:57:19.782Z,42.45
2023-04-17T16:59:47.004Z,38.25
2023-04-17T17:02:14.312Z,39.80
2023-04-17T17:04:41.773Z,38.28
2023-04-17T17:07:09.252Z,36.80
2023-04-17T17:09:36.627Z,38.75
2023-04-17T17:12:04.171Z,33.42
2023-04-17T17:14:31.467Z,35.70
2023-04-17T17:16:58.891Z,31.02
2023-04-17T17:19:26.134Z,33.33
2023-04-17T17:21:55.284Z,33.67
2023-04-17T17:26:50.715Z,39.80
2023-04-17T17:29:18.092Z,37.67
2023-04-17T17:31:45.448Z,41.65
2023-04-17T17:39:10.484Z,42.65
2023-04-17T17:41:37.956Z,45.85
2023-04-17T17:44:05.248Z,42.22
2023-04-17T17:46:34.347Z,44.47
2023-04-17T17:49:01.677Z,40.88
2023-04-17T17:51:29.073Z,43.83
2023-04-17T17:53:56.309Z,47.50
2023-04-17T17:56:23.735Z,44.92
2023-04-17T17:58:51.186Z,45.05
2023-04-17T18:01:18.501Z,46.13
2023-04-17T18:03:48.749Z,44.33
2023-04-17T18:06:17.132Z,43.03
2023-04-17T18:08:44.480Z,42.90
2023-04-17T18:11:13.747Z,39.38
2023-04-17T18:13:41.023Z,41.97
2023-04-17T18:16:08.629Z,42.13
2023-04-17T18:18:36.132Z,40.55
2023-04-17T18:21:07.424Z,45.20
2023-04-17T18:23:35.514Z,44.63
2023-04-17T18:26:03.936Z,45.15
2023-04-17T18:28:32.756Z,42.97
2023-04-17T18:31:00.119Z,42.38
2023-04-17T18:33:28.974Z,43.53
2023-04-17T18:35:56.544Z,38.63
2023-04-17T18:38:23.879Z,43.85
2023-04-17T18:40:59.435Z,39.63
2023-04-17T18:43:27.686Z,38.90
2023-04-17T18:45:54.977Z,44.05
2023-04-17T18:48:23.765Z,42.83
2023-04-17T18:50:54.610Z,40.05
2023-04-17T18:53:22.350Z,44.47
2023-04-17T18:55:49.706Z,40.05
2023-04-17T18:58:20.198Z,50.55
2023-04-17T19:00:48.078Z,41.65
2023-04-17T19:03:15.398Z,44.08
2023-04-17T19:05:42.683Z,44.20
2023-04-17T19:08:10.025Z,46.15
2023-04-17T19:10:39.924Z,44.15
2023-04-17T19:13:09.849Z,46.17
2023-04-17T19:15:37.387Z,44.78
2023-04-17T19:18:06.603Z,39.75
2023-04-17T19:20:34.265Z,47.30
2023-04-17T19:23:01.989Z,44.17
2023-04-17T19:25:29.594Z,49.22
2023-04-17T19:27:56.822Z,43.60
2023-04-17T19:30:24.242Z,47.70
2023-04-17T19:32:51.664Z,43.70
2023-04-17T19:35:19.086Z,48.22
2023-04-17T19:37:46.544Z,43.97
2023-04-17T19:40:24.505Z,47.50
2023-04-17T19:42:53.159Z,40.72
2023-04-17T19:45:23.285Z,45.15
2023-04-17T19:47:56.240Z,46.65
2023-04-17T19:50:26.455Z,41.58
2023-04-17T19:52:54.353Z,43.53
2023-04-17T19:55:21.822Z,44.85
2023-04-17T19:57:50.414Z,46.78
2023-04-17T20:00:17.888Z,44.90
2023-04-17T20:02:45.376Z,48.00
2023-04-17T20:05:12.697Z,47.25
2023-04-17T20:07:40.037Z,43.60
2023-04-17T20:10:07.694Z,47.67
2023-04-17T20:12:35.197Z,45.85
2023-04-17T20:15:02.537Z,49.60
2023-04-17T20:17:29.952Z,46.90
2023-04-17T20:19:57.242Z,45.88
2023-04-17T20:22:24.526Z,49.70
2023-04-17T20:24:51.853Z,48.33
2023-04-17T20:27:19.197Z,48.10
2023-04-17T20:29:46.802Z,48.78
2023-04-17T20:32:14.124Z,51.15
2023-04-17T20:34:41.392Z,52.35
2023-04-17T20:37:08.764Z,52.70
2023-04-17T20:39:36.114Z,51.95
2023-04-17T20:42:03.400Z,55.88
2023-04-17T20:44:32.057Z,52.22
2023-04-17T20:46:59.455Z,54.13
2023-04-17T20:49:26.693Z,49.65
2023-04-17T20:51:54.163Z,50.05
2023-04-17T20:54:23.133Z,55.72
2023-04-17T20:56:50.526Z,57.60
2023-04-17T20:59:17.785Z,55.75
2023-04-17T21:01:45.075Z,56.78
2023-04-17T21:04:12.665Z,61.85
2023-04-17T21:06:40.428Z,63.88
2023-04-17T21:09:08.785Z,60.75
2023-04-17T21:11:36.048Z,64.63
2023-04-17T21:14:03.818Z,64.63
2023-04-17T21:16:31.364Z,64.25
2023-04-17T21:18:58.733Z,66.90
2023-04-17T21:21:26.858Z,62.67
2023-04-17T21:23:54.143Z,65.05
2023-04-17T21:26:21.919Z,65.65
2023-04-17T21:28:49.120Z,65.25
2023-04-17T21:31:16.536Z,67.88
2023-04-17T21:33:44.014Z,68.00
2023-04-17T21:36:11.426Z,61.80
2023-04-17T21:38:39.271Z,62.33
2023-04-17T21:41:06.539Z,69.30
2023-04-17T21:43:33.903Z,66.82
2023-04-17T21:46:01.345Z,63.75
2023-04-17T21:48:28.726Z,62.70
2023-04-17T21:51:02.401Z,62.78
2023-04-17T21:53:30.359Z,66.47
2023-04-17T21:55:57.766Z,60.55
2023-04-17T21:58:25.073Z,64.50
2023-04-17T22:00:52.414Z,59.65
2023-04-17T22:03:21.193Z,62.80
2023-04-17T22:05:52.701Z,62.72
2023-04-17T22:08:20.026Z,62.65
2023-04-17T22:10:47.283Z,65.40
2023-04-17T22:13:15.929Z,65.45
2023-04-17T22:15:43.991Z,67.20
2023-04-17T22:18:11.213Z,60.25
2023-04-17T22:20:38.514Z,60.55
2023-04-17T22:23:05.913Z,63.28
2023-04-17T22:25:33.217Z,67.28
2023-04-17T22:28:00.495Z,59.72
2023-04-17T22:30:27.749Z,58.65
2023-04-17T22:32:56.505Z,54.47
2023-04-17T22:35:23.851Z,57.97
2023-04-17T22:37:51.144Z,60.83
2023-04-17T22:40:18.548Z,55.78
2023-04-17T22:42:45.996Z,59.45
2023-04-17T22:45:13.203Z,59.00
2023-04-17T22:47:41.153Z,52.00
2023-04-17T22:50:10.823Z,58.25
2023-04-17T22:52:38.116Z,54.55
2023-04-17T22:55:06.487Z,55.78
2023-04-17T22:57:34.135Z,57.42
2023-04-17T23:00:01.550Z,53.38
2023-04-17T23:02:28.974Z,56.20
2023-04-17T23:04:56.393Z,57.08
2023-04-17T23:07:23.821Z,55.30
2023-04-17T23:09:51.047Z,58.85
2023-04-17T23:12:18.365Z,60.22
2023-04-17T23:14:46.120Z,61.78
2023-04-17T23:17:13.367Z,56.90
2023-04-17T23:19:40.783Z,58.15
2023-04-17T23:22:08.202Z,60.28
2023-04-17T23:24:35.643Z,62.42
2023-04-17T23:27:02.958Z,59.75
2023-04-17T23:29:30.408Z,64.03
2023-04-17T23:31:58.881Z,63.78
2023-04-17T23:34:27.569Z,61.58
2023-04-17T23:36:54.955Z,63.65
2023-04-17T23:39:22.442Z,62.22
2023-04-17T23:41:52.310Z,66.45
2023-04-17T23:44:19.630Z,64.22
2023-04-17T23:46:47.017Z,72.10
2023-04-17T23:49:14.362Z,72.82
2023-04-17T23:51:41.764Z,72.28
2023-04-17T23:54:09.025Z,74.25
2023-04-17T23:56:36.298Z,67.07
2023-04-17T23:59:03.559Z,70.10
